TimeCST,TemperatureF,Dew PointF,Humidity,Sea Level PressureIn,VisibilityMPH,Wind Direction,Wind SpeedMPH,Gust SpeedMPH,PrecipitationIn,Events,Conditions,WindDirDegrees,DateUTC
12:53 AM,25.0,25.0,100,29.96,7.0,ESE,8.1,-,N/A,,Overcast,120,2013-02-10 06:53:00
1:53 AM,25.0,25.0,100,29.93,5.0,East,13.8,-,N/A,,Overcast,100,2013-02-10 07:53:00
2:53 AM,25.0,25.0,100,29.89,6.0,ESE,13.8,-,N/A,,Overcast,110,2013-02-10 08:53:00
3:53 AM,25.0,25.0,100,29.83,4.0,ESE,17.3,24.2,0.00,Snow,Light Snow,110,2013-02-10 09:53:00
4:02 AM,24.8,24.8,100,29.79,1.8,East,17.3,24.2,0.00,Snow,Light Snow,100,2013-02-10 10:02:00
4:10 AM,24.8,24.8,100,29.80,1.0,ESE,15.0,-,0.01,Snow,Light Snow,110,2013-02-10 10:10:00
4:16 AM,24.8,24.8,100,29.80,2.0,ESE,13.8,-,0.01,Snow,Light Snow,110,2013-02-10 10:16:00
4:20 AM,24.8,24.8,100,29.79,3.0,East,15.0,-,0.01,Snow,Light Snow,100,2013-02-10 10:20:00
4:43 AM,24.8,24.8,100,29.77,4.0,East,13.8,-,0.01,Snow,Light Snow,90,2013-02-10 10:43:00
4:53 AM,25.0,25.0,100,29.81,4.0,East,15.0,-,0.02,Snow,Light Snow,100,2013-02-10 10:53:00
5:22 AM,24.8,24.8,100,29.73,5.0,East,17.3,-,0.00,,Overcast,90,2013-02-10 11:22:00
5:53 AM,25.0,25.0,100,29.75,5.0,East,15.0,-,0.00,,Overcast,90,2013-02-10 11:53:00
6:29 AM,24.8,24.8,100,29.70,5.0,East,15.0,-,N/A,,Overcast,90,2013-02-10 12:29:00
6:53 AM,25.0,25.0,100,29.73,6.0,ESE,17.3,-,N/A,,Overcast,110,2013-02-10 12:53:00
7:39 AM,24.8,24.8,100,29.64,5.0,ENE,15.0,-,N/A,,Overcast,70,2013-02-10 13:39:00
7:53 AM,25.0,25.0,100,29.68,6.0,East,15.0,-,N/A,,Overcast,90,2013-02-10 13:53:00
8:21 AM,24.8,24.8,100,29.63,5.0,East,15.0,-,0.00,Rain,Light Freezing Rain,80,2013-02-10 14:21:00
8:38 AM,24.8,24.8,100,29.60,3.0,ENE,12.7,23.0,0.00,Rain,Light Freezing Rain,70,2013-02-10 14:38:00
8:53 AM,25.0,25.0,100,29.64,3.0,East,11.5,20.7,0.00,Rain,Light Freezing Rain,80,2013-02-10 14:53:00
9:22 AM,30.2,28.4,93,29.59,2.5,East,13.8,-,0.01,,Heavy Ice Pellets,80,2013-02-10 15:22:00
9:32 AM,30.2,28.4,93,29.57,2.0,East,17.3,21.9,0.03,,Heavy Ice Pellets,80,2013-02-10 15:32:00
9:46 AM,32.0,28.4,87,29.55,1.8,ENE,17.3,25.3,0.05,Snow,Heavy Ice Pellets,70,2013-02-10 15:46:00
9:53 AM,31.1,26.1,82,29.57,2.0,ENE,15.0,-,0.06,Snow,Heavy Ice Pellets,70,2013-02-10 15:53:00
10:16 AM,32.0,26.6,80,29.53,2.5,East,12.7,-,0.03,Snow,Ice Pellets,80,2013-02-10 16:16:00
10:24 AM,32.0,26.6,80,29.56,2.5,ESE,12.7,-,0.04,Snow,Light Snow,110,2013-02-10 16:24:00
10:29 AM,32.0,26.6,80,29.54,1.2,East,11.5,-,0.04,Snow,Small Hail,100,2013-02-10 16:29:00
10:44 AM,32.0,26.6,80,29.49,1.2,ENE,15.0,-,0.11,Snow,Heavy Ice Pellets,70,2013-02-10 16:44:00
10:53 AM,31.1,27.0,85,29.51,1.8,ENE,13.8,-,0.12,Snow,Light Ice Pellets,70,2013-02-10 16:53:00
11:00 AM,32.0,28.4,87,29.47,2.5,ENE,12.7,-,0.00,Snow,Light Ice Pellets,60,2013-02-10 17:00:00
11:02 AM,32.0,28.4,87,29.46,2.5,ENE,12.7,-,0.01,Snow,Light Snow,70,2013-02-10 17:02:00
11:09 AM,32.0,28.4,87,29.47,2.0,ENE,9.2,-,0.01,Rain-Snow,Light Freezing Rain,70,2013-02-10 17:09:00
11:22 AM,32.0,28.4,87,29.48,1.8,East,9.2,-,0.03,Rain,Light Freezing Rain,100,2013-02-10 17:22:00
11:26 AM,32.0,28.4,87,29.48,1.0,East,9.2,-,0.04,Snow,Light Snow,100,2013-02-10 17:26:00
11:34 AM,32.0,28.4,87,29.47,0.5,East,10.4,-,0.06,Fog-Snow,Snow,100,2013-02-10 17:34:00
11:53 AM,32.0,28.0,85,29.48,0.5,East,11.5,-,0.08,Fog-Snow,Snow,100,2013-02-10 17:53:00
12:39 PM,32.0,28.4,87,29.41,0.2,East,12.7,-,0.04,Fog-Snow,Snow,90,2013-02-10 18:39:00
12:53 PM,31.1,27.0,85,29.43,0.2,East,12.7,-,0.05,Fog-Snow,Heavy Snow,80,2013-02-10 18:53:00
1:13 PM,32.0,26.6,80,29.38,0.2,East,12.7,-,0.01,Fog-Snow,Snow,80,2013-02-10 19:13:00
1:20 PM,32.0,26.6,80,29.37,0.8,East,12.7,-,0.01,Snow,Light Snow,80,2013-02-10 19:20:00
1:30 PM,32.0,26.6,80,29.37,1.2,East,12.7,-,0.12,Snow,Light Snow,80,2013-02-10 19:30:00
1:47 PM,32.0,26.6,80,29.37,2.0,East,10.4,-,0.13,Snow,Light Snow,100,2013-02-10 19:47:00
1:53 PM,32.0,28.0,85,29.39,3.0,East,12.7,-,0.13,Snow,Light Snow,90,2013-02-10 19:53:00
2:01 PM,32.0,28.4,87,29.35,2.0,East,13.8,-,0.00,Snow,Light Snow,100,2013-02-10 20:01:00
2:24 PM,32.0,28.4,87,29.34,5.0,East,10.4,-,0.00,Snow,Light Snow,100,2013-02-10 20:24:00
2:53 PM,33.1,28.9,85,29.36,6.0,East,13.8,-,0.00,,Overcast,100,2013-02-10 20:53:00
3:53 PM,33.1,30.0,89,29.34,8.0,East,11.5,-,N/A,,Overcast,90,2013-02-10 21:53:00
4:53 PM,34.0,30.0,85,29.32,5.0,East,9.2,-,N/A,,Overcast,90,2013-02-10 22:53:00
5:53 PM,34.0,31.1,89,29.31,8.0,ENE,4.6,-,N/A,,Overcast,60,2013-02-10 23:53:00
6:53 PM,35.1,32.0,89,29.31,3.0,North,5.8,-,0.02,Rain,Light Rain,10,2013-02-11 00:53:00
7:14 PM,35.6,32.0,87,29.28,2.5,Variable,4.6,-,0.03,Rain,Light Rain,0,2013-02-11 01:14:00
7:44 PM,35.6,32.0,87,29.27,1.8,North,6.9,-,0.06,Snow,Light Snow,10,2013-02-11 01:44:00
7:53 PM,33.1,32.0,96,29.30,1.5,North,5.8,-,0.06,Snow,Light Snow,10,2013-02-11 01:53:00
8:06 PM,33.8,32.0,93,29.27,1.2,North,6.9,-,0.01,Snow,Light Snow,10,2013-02-11 02:06:00
8:17 PM,33.8,32.0,93,29.27,2.0,North,6.9,-,0.01,Snow,Light Snow,10,2013-02-11 02:17:00
8:42 PM,33.8,32.0,93,29.26,1.8,North,6.9,-,0.02,Snow,Light Snow,360,2013-02-11 02:42:00
8:53 PM,33.1,32.0,96,29.29,1.8,Variable,5.8,-,0.02,Snow,Light Snow,0,2013-02-11 02:53:00
8:55 PM,33.8,32.0,93,29.26,2.0,North,5.8,-,0.00,Snow,Light Snow,360,2013-02-11 02:55:00
9:02 PM,33.8,32.0,93,29.27,2.0,North,5.8,-,0.00,Snow,Light Snow,350,2013-02-11 03:02:00
9:53 PM,33.1,31.1,92,29.29,2.0,NNW,9.2,-,0.01,Snow,Light Snow,340,2013-02-11 03:53:00
10:53 PM,32.0,30.0,92,29.31,1.5,NW,11.5,-,0.01,Snow,Light Snow,320,2013-02-11 04:53:00
11:04 PM,32.0,30.2,93,29.29,1.2,NW,13.8,-,0.01,Snow,Light Snow,320,2013-02-11 05:04:00
11:13 PM,32.0,30.2,93,29.30,1.5,NNW,15.0,-,0.01,Snow,Light Snow,330,2013-02-11 05:13:00
11:29 PM,32.0,30.2,93,29.30,1.2,NW,13.8,-,0.02,Snow,Light Snow,320,2013-02-11 05:29:00
11:44 PM,32.0,30.2,93,29.31,1.5,NW,12.7,-,0.03,Snow,Light Snow,320,2013-02-11 05:44:00
11:53 PM,32.0,28.4,87,29.34,2.0,NW,17.3,-,0.04,Snow,Light Snow,310,2013-02-11 05:53:00